Time;durP1;ratioP1;P1;durP2;ratioP2;P2;SDS_P1;SDS_P2;PMS_P1;PMS_P2;Temp;Humidity;BMP_temperature;BMP_pressure;BME280_temperature;BME280_humidity;BME280_pressure;Samples;Min_cycle;Max_cycle;Signal;HPM_P1;HPM_P2
2022/09/04 00:00:31;;;;;;;;;12.40;10.40;;;;;24.15;49.06;100783.00;2070171;28;48086;-56
2022/09/04 00:01:52;;;;;;;;;9.60;9.00;;;;;24.14;49.14;100778.56;2078292;28;47317;-58
2022/09/04 00:03:03;;;;;;;;;13.40;11.40;;;;;24.11;49.09;100781.47;2078720;28;47565;-59
2022/09/04 00:04:25;;;;;;;;;9.00;9.00;;;;;24.09;49.29;100788.88;2078150;28;47684;-58
2022/09/04 00:05:45;;;;;;;;;8.60;8.40;;;;;24.06;49.08;100781.84;2077873;28;48326;-60
2022/09/04 00:07:04;;;;;;;;;13.60;13.60;;;;;24.03;49.23;100779.38;2075720;28;47602;-56
2022/09/04 00:08:26;;;;;;;;;11.00;11.00;;;;;23.99;49.29;100782.41;2077933;28;47582;-58
2022/09/04 00:09:39;;;;;;;;;14.20;12.60;;;;;23.94;49.59;100776.50;2071226;28;47698;-59
2022/09/04 00:10:49;;;;;;;;;10.40;9.40;;;;;23.95;49.43;100780.94;2078381;28;47888;-61
2022/09/04 00:12:04;;;;;;;;;9.40;9.40;;;;;23.93;49.37;100778.34;2076451;28;48385;-58
2022/09/04 00:13:14;;;;;;;;;2.40;1.80;;;;;23.92;49.59;100779.31;2078114;28;47925;-58
2022/09/04 00:14:35;;;;;;;;;10.00;9.80;;;;;23.91;49.25;100777.59;2073899;28;47913;-57
2022/09/04 00:15:43;;;;;;;;;12.60;12.60;;;;;23.91;49.34;100776.75;2076499;28;47318;-57
2022/09/04 00:16:53;;;;;;;;;10.00;10.00;;;;;23.90;49.48;100786.72;2069131;28;45978;-57
2022/09/04 00:18:01;;;;;;;;;10.80;10.80;;;;;23.89;49.50;100790.41;2067690;28;47931;-58
2022/09/04 00:19:08;;;;;;;;;12.40;12.00;;;;;23.87;49.60;100792.34;2077394;28;47291;-57
2022/09/04 00:20:31;;;;;;;;;11.40;11.40;;;;;23.84;49.45;100794.44;2072227;28;48138;-57
2022/09/04 00:21:35;;;;;;;;;12.00;11.60;;;;;23.83;49.65;100790.00;2070492;28;46996;-56
2022/09/04 00:22:51;;;;;;;;;12.80;11.40;;;;;23.84;49.53;100794.44;2066232;28;47591;-56
2022/09/04 00:24:01;;;;;;;;;11.00;10.60;;;;;23.84;49.50;100805.28;2068529;28;47603;-56
2022/09/04 00:25:20;;;;;;;;;11.80;9.60;;;;;23.81;49.82;100795.53;2068987;28;47459;-56
2022/09/04 00:26:35;;;;;;;;;9.60;9.60;;;;;23.81;49.76;100800.09;2077841;28;47475;-59
2022/09/04 00:27:45;;;;;;;;;8.80;8.80;;;;;23.81;49.59;100797.38;2086111;28;47278;-59
2022/09/04 00:28:49;;;;;;;;;11.60;11.00;;;;;23.79;49.60;100802.94;2086648;28;47609;-58
2022/09/04 00:30:06;;;;;;;;;11.60;11.60;;;;;23.77;49.60;100796.75;2086120;28;47934;-58
2022/09/04 00:31:35;;;;;;;;;11.60;10.20;;;;;23.78;49.60;100803.91;2077618;28;47510;-58
2022/09/04 00:32:48;;;;;;;;;10.00;9.20;;;;;23.77;49.75;100803.03;2073391;28;46899;-58
2022/09/04 00:34:36;;;;;;;;;10.00;10.00;;;;;23.76;49.63;100808.59;2070013;28;47697;-58
2022/09/04 00:35:46;;;;;;;;;12.20;12.20;;;;;23.74;49.55;100805.97;2069223;28;47751;-58
2022/09/04 00:36:53;;;;;;;;;10.00;10.00;;;;;23.74;49.67;100797.81;2067459;28;47904;-58
2022/09/04 00:38:09;;;;;;;;;12.80;12.80;;;;;23.72;49.81;100805.22;2071228;28;47875;-58
2022/09/04 00:39:21;;;;;;;;;11.60;11.20;;;;;23.71;49.89;100802.63;2079035;28;47951;-59
2022/09/04 00:40:40;;;;;;;;;13.00;12.00;;;;;23.70;49.89;100809.88;2070306;28;48055;-58
2022/09/04 00:41:43;;;;;;;;;9.60;9.00;;;;;23.70;49.76;100807.19;2072870;28;47869;-57
2022/09/04 00:43:00;;;;;;;;;14.00;13.60;;;;;23.69;49.81;100810.88;2078254;28;48037;-55
2022/09/04 00:44:26;;;;;;;;;12.00;11.80;;;;;23.70;49.86;100814.44;2077412;28;47923;-59
2022/09/04 00:45:51;;;;;;;;;7.20;7.20;;;;;23.70;49.91;100815.31;2048336;28;47483;-58
2022/09/04 00:47:06;;;;;;;;;10.80;10.60;;;;;23.69;49.91;100816.28;2059477;28;46675;-58
2022/09/04 00:48:35;;;;;;;;;10.00;10.00;;;;;23.68;49.92;100819.97;2070090;28;47051;-60
2022/09/04 00:49:44;;;;;;;;;11.20;11.20;;;;;23.69;49.73;100815.44;2073531;28;47358;-56
2022/09/04 00:51:15;;;;;;;;;11.40;10.80;;;;;23.68;49.81;100817.28;2075867;28;47458;-58
2022/09/04 00:52:53;;;;;;;;;11.00;10.40;;;;;23.69;49.87;100816.28;2075992;28;47661;-59
2022/09/04 00:54:15;;;;;;;;;11.40;9.80;;;;;23.69;49.92;100820.84;2078563;28;47881;-58
2022/09/04 00:55:25;;;;;;;;;9.00;9.00;;;;;23.68;49.74;100821.81;2084937;28;47752;-56
2022/09/04 00:56:50;;;;;;;;;10.40;10.20;;;;;23.67;49.92;100826.38;2081571;28;47959;-57
2022/09/04 00:57:58;;;;;;;;;9.00;9.00;;;;;23.66;49.69;100824.66;2086069;28;48038;-58
2022/09/04 00:59:04;;;;;;;;;10.20;10.20;;;;;23.67;49.75;100823.69;2086789;28;46522;-57
2022/09/04 01:00:14;;;;;;;;;12.00;10.20;;;;;23.68;49.79;100821.81;2085390;28;47524;-57
2022/09/04 01:01:21;;;;;;;;;9.00;9.00;;;;;23.68;49.69;100825.41;2087156;28;47464;-57
2022/09/04 01:03:23;;;;;;;;;12.60;12.60;;;;;23.68;49.61;100822.69;2081545;28;47626;-58
2022/09/04 01:04:40;;;;;;;;;10.00;10.00;;;;;23.67;49.56;100833.66;2052773;28;48103;-57
2022/09/04 01:06:06;;;;;;;;;10.20;10.20;;;;;23.66;49.53;100830.06;2047227;28;47634;-56
2022/09/04 01:07:30;;;;;;;;;10.00;9.60;;;;;23.65;49.29;100831.06;2054309;28;45600;-58
2022/09/04 01:09:01;;;;;;;;;10.40;10.00;;;;;23.64;49.52;100826.63;2053689;28;47426;-57
2022/09/04 01:10:18;;;;;;;;;10.00;10.00;;;;;23.63;49.50;100824.00;2053832;28;48440;-58
2022/09/04 01:11:42;;;;;;;;;11.00;9.40;;;;;23.61;49.09;100834.09;2057297;28;47429;-59
2022/09/04 01:12:55;;;;;;;;;10.00;10.00;;;;;23.58;49.45;100832.47;2059328;28;45521;-57
2022/09/04 01:14:04;;;;;;;;;13.60;13.00;;;;;23.57;49.70;100833.44;2059579;28;47633;-58
2022/09/04 01:15:34;;;;;;;;;9.40;8.80;;;;;23.56;49.50;100833.53;2053402;28;47711;-58
2022/09/04 01:16:56;;;;;;;;;11.40;10.80;;;;;23.53;49.86;100831.94;2056493;28;47926;-56
2022/09/04 01:18:03;;;;;;;;;10.60;10.60;;;;;23.52;49.66;100840.19;2061897;28;47520;-59
2022/09/04 01:19:28;;;;;;;;;9.80;8.80;;;;;23.50;49.55;100842.97;2062117;28;47632;-56
2022/09/04 01:20:51;;;;;;;;;9.00;9.00;;;;;23.47;49.65;100838.66;2061331;28;47696;-59
2022/09/04 01:22:07;;;;;;;;;12.00;10.00;;;;;23.47;49.49;100840.50;2061834;28;47706;-56
2022/09/04 01:23:19;;;;;;;;;8.20;8.20;;;;;23.47;49.38;100840.50;2061293;28;47667;-57
2022/09/04 01:24:38;;;;;;;;;9.00;9.00;;;;;23.44;49.15;100838.03;2061849;28;47498;-58
2022/09/04 01:25:53;;;;;;;;;7.40;7.40;;;;;23.44;49.14;100843.44;2051413;28;47811;-56
2022/09/04 01:27:18;;;;;;;;;8.40;8.40;;;;;23.43;49.45;100844.41;2052863;28;48211;-57
2022/09/04 01:28:57;;;;;;;;;9.20;9.20;;;;;23.41;49.23;100838.25;2057161;28;47813;-56
2022/09/04 01:30:08;;;;;;;;;7.60;7.60;;;;;23.40;49.29;100839.22;2059284;28;48253;-57
2022/09/04 01:31:14;;;;;;;;;10.20;10.20;;;;;23.38;49.18;100839.34;2062081;28;47848;-59
2022/09/04 01:32:28;;;;;;;;;9.80;8.80;;;;;23.37;49.09;100837.59;2057348;28;47654;-58
2022/09/04 01:33:43;;;;;;;;;9.00;8.00;;;;;23.36;49.30;100843.13;2054323;28;48183;-56
2022/09/04 01:35:16;;;;;;;;;8.40;8.40;;;;;23.35;49.22;100833.28;2062026;28;47790;-58
2022/09/04 01:36:35;;;;;;;;;8.80;8.80;;;;;23.35;49.12;100844.09;2074657;28;46639;-58
2022/09/04 01:37:46;;;;;;;;;7.80;7.60;;;;;23.33;49.26;100846.94;2077652;28;48045;-56
2022/09/04 01:38:57;;;;;;;;;7.75;7.75;;;;;23.32;49.07;100845.19;2078269;28;47397;-58
2022/09/04 01:40:31;;;;;;;;;9.60;9.20;;;;;23.31;48.95;100848.03;2077584;28;47493;-57
2022/09/04 01:41:52;;;;;;;;;9.20;9.20;;;;;23.28;48.44;100851.81;2086980;27;47953;-57
2022/09/04 01:43:16;;;;;;;;;7.75;7.75;;;;;23.23;49.09;100845.00;2103194;28;47809;-58
2022/09/04 01:44:16;;;;;;;;;10.80;10.20;;;;;23.24;48.94;100849.44;2102462;28;48119;-57
2022/09/04 01:45:43;;;;;;;;;9.00;9.00;;;;;23.21;48.91;100850.53;2104378;28;47508;-59
2022/09/04 01:47:07;;;;;;;;;8.40;7.80;;;;;23.21;49.06;100853.22;2061660;28;47912;-57
2022/09/04 01:48:13;;;;;;;;;9.80;9.80;;;;;23.20;48.91;100854.22;2061428;28;47702;-57
2022/09/04 01:49:26;;;;;;;;;9.40;8.40;;;;;23.20;49.24;100859.63;2062002;28;48076;-56
2022/09/04 01:50:31;;;;;;;;;7.80;6.80;;;;;23.18;48.76;100853.47;2060945;28;48153;-58
2022/09/04 01:51:42;;;;;;;;;8.40;7.80;;;;;23.17;48.89;100849.88;2061299;28;47455;-58
2022/09/04 01:53:22;;;;;;;;;10.20;10.20;;;;;23.16;48.83;100850.88;2058785;28;47813;-57
2022/09/04 01:54:41;;;;;;;;;8.20;8.20;;;;;23.16;48.51;100852.72;2030503;28;47394;-58
2022/09/04 01:56:10;;;;;;;;;9.20;8.80;;;;;23.15;48.82;100859.97;2031362;28;48087;-57
2022/09/04 01:57:47;;;;;;;;;6.20;5.80;;;;;23.13;48.70;100853.81;2014043;29;47416;-55
2022/09/04 01:58:53;;;;;;;;;8.60;7.60;;;;;23.13;48.65;100861.06;2025052;28;47970;-57
2022/09/04 02:00:20;;;;;;;;;9.60;9.60;;;;;23.13;48.90;100852.94;2033686;28;48499;-58
2022/09/04 02:01:46;;;;;;;;;6.20;5.60;;;;;23.13;48.94;100852.94;2022305;29;47406;-56
2022/09/04 02:03:14;;;;;;;;;7.00;7.00;;;;;23.13;49.05;100848.38;2031450;28;48028;-57
2022/09/04 02:05:01;;;;;;;;;9.60;8.60;;;;;23.13;48.79;100853.81;2029505;28;47790;-56
2022/09/04 02:06:31;;;;;;;;;9.40;7.00;;;;;23.11;48.49;100850.31;2029407;29;47662;-58
2022/09/04 02:07:43;;;;;;;;;9.20;7.80;;;;;23.11;48.51;100852.16;2025981;29;47700;-57
2022/09/04 02:08:44;;;;;;;;;9.80;9.80;;;;;23.11;48.63;100857.56;2020834;29;47426;-58
2022/09/04 02:10:02;;;;;;;;;7.20;7.20;;;;;23.10;48.51;100851.28;2021649;29;47396;-58
2022/09/04 02:11:02;;;;;;;;;9.00;9.00;;;;;23.10;48.77;100862.13;2014173;29;47454;-58
2022/09/04 02:12:34;;;;;;;;;7.50;7.50;;;;;23.11;48.55;100861.13;2016403;29;47777;-57
2022/09/04 02:13:52;;;;;;;;;7.40;7.20;;;;;23.11;48.76;100860.28;2021159;29;47836;-58
2022/09/04 02:15:05;;;;;;;;;7.00;7.00;;;;;23.12;48.61;100870.13;2020064;29;47989;-58
2022/09/04 02:16:19;;;;;;;;;7.80;7.80;;;;;23.11;48.70;100863.84;2013825;29;47294;-56
2022/09/04 02:17:44;;;;;;;;;7.80;7.80;;;;;23.11;48.62;100862.97;2008546;29;47772;-58
2022/09/04 02:19:20;;;;;;;;;8.00;7.00;;;;;23.09;48.17;100863.09;2019662;29;47675;-58
2022/09/04 02:20:27;;;;;;;;;7.00;7.00;;;;;23.07;48.29;100870.47;2021246;29;47601;-57
2022/09/04 02:21:35;;;;;;;;;6.00;6.00;;;;;23.04;48.73;100865.28;2022049;29;47371;-57
2022/09/04 02:22:54;;;;;;;;;6.40;6.40;;;;;23.05;48.45;100868.84;2015642;29;48199;-57
2022/09/04 02:24:05;;;;;;;;;9.60;9.60;;;;;23.05;48.53;100871.56;2017623;29;46877;-58
2022/09/04 02:25:19;;;;;;;;;5.00;5.00;;;;;23.06;48.65;100874.16;2054163;28;47823;-58
2022/09/04 02:26:28;;;;;;;;;7.80;7.00;;;;;23.06;48.43;100874.16;2053687;28;48255;-58
2022/09/04 02:27:40;;;;;;;;;5.20;5.20;;;;;23.05;48.10;100877.84;2055402;28;47608;-56
2022/09/04 02:28:59;;;;;;;;;7.40;6.40;;;;;23.02;48.29;100878.06;2055003;28;47510;-55
2022/09/04 02:30:07;;;;;;;;;4.40;4.40;;;;;23.02;48.14;100879.91;2057309;28;47828;-56
2022/09/04 02:31:16;;;;;;;;;7.20;6.60;;;;;23.00;48.07;100874.59;2086005;28;47571;-56
2022/09/04 02:32:42;;;;;;;;;7.00;7.00;;;;;23.00;48.25;100881.84;2085112;28;47500;-58
2022/09/04 02:33:42;;;;;;;;;6.00;6.00;;;;;22.99;48.22;100877.38;2046345;28;46637;-57
2022/09/04 02:34:54;;;;;;;;;7.00;7.00;;;;;22.97;47.91;100873.94;2047354;28;47272;-58
2022/09/04 02:36:25;;;;;;;;;6.00;6.00;;;;;22.96;48.21;100883.03;2046062;28;47778;-55
2022/09/04 02:37:37;;;;;;;;;6.00;6.00;;;;;22.96;48.02;100883.03;2040912;28;47709;-57
2022/09/04 02:38:58;;;;;;;;;5.50;5.50;;;;;22.97;48.03;100892.88;2046791;28;47117;-55
2022/09/04 02:40:17;;;;;;;;;7.60;7.60;;;;;22.95;48.19;100892.13;2042356;28;46659;-58
2022/09/04 02:41:40;;;;;;;;;8.20;8.20;;;;;22.94;48.44;100899.38;2045258;28;47557;-57
2022/09/04 02:42:59;;;;;;;;;5.50;4.00;;;;;22.92;48.38;100887.81;2054704;28;47399;-57
2022/09/04 02:44:32;;;;;;;;;6.60;5.20;;;;;22.92;48.21;100892.34;2054822;28;47291;-57
2022/09/04 02:45:49;;;;;;;;;4.75;4.25;;;;;22.92;48.09;100895.06;2030419;28;47388;-56
2022/09/04 02:47:11;;;;;;;;;4.80;4.80;;;;;22.88;48.42;100895.28;2034159;28;47738;-58
2022/09/04 02:48:29;;;;;;;;;6.50;4.75;;;;;22.87;47.96;100896.25;2035363;28;47826;-56
2022/09/04 02:50:17;;;;;;;;;7.00;7.00;;;;;22.84;48.14;100895.56;2023338;29;47351;-56
2022/09/04 02:51:29;;;;;;;;;5.75;5.50;;;;;22.82;48.66;100889.38;2016031;29;47301;-57
2022/09/04 02:53:02;;;;;;;;;7.00;6.40;;;;;22.82;48.28;100898.38;2014393;29;47021;-57
2022/09/04 02:54:26;;;;;;;;;5.75;5.75;;;;;22.81;48.56;100903.88;2006788;29;47415;-56
2022/09/04 02:55:43;;;;;;;;;6.25;6.25;;;;;22.78;48.32;100894.16;2010799;29;47710;-57
2022/09/04 02:57:14;;;;;;;;;6.60;6.60;;;;;22.79;48.37;100892.31;2014840;29;47852;-56
2022/09/04 02:58:38;;;;;;;;;7.00;7.00;;;;;22.79;47.96;100898.59;2014232;29;47186;-56
2022/09/04 03:00:04;;;;;;;;;7.80;7.80;;;;;22.74;48.51;100900.75;2014821;29;47314;-57
2022/09/04 03:01:24;;;;;;;;;8.00;8.00;;;;;22.72;48.62;100904.50;2023093;29;47250;-58
2022/09/04 03:02:33;;;;;;;;;6.25;6.25;;;;;22.71;48.20;100900.09;2004190;29;47348;-56
2022/09/04 03:03:43;;;;;;;;;6.60;6.60;;;;;22.68;48.75;100901.16;2001248;29;47674;-58
2022/09/04 03:04:55;;;;;;;;;6.25;6.25;;;;;22.67;48.57;100906.69;2012083;29;47624;-58
2022/09/04 03:06:01;;;;;;;;;6.00;5.00;;;;;22.65;48.55;100897.81;2015127;29;47446;-55
2022/09/04 03:07:19;;;;;;;;;5.80;5.80;;;;;22.63;48.40;100897.06;2015240;29;47335;-58
2022/09/04 03:08:26;;;;;;;;;6.60;6.00;;;;;22.63;48.55;100902.47;2014323;29;47721;-58
2022/09/04 03:09:35;;;;;;;;;9.25;7.00;;;;;22.63;48.25;100902.47;1999978;29;47705;-58
2022/09/04 03:10:49;;;;;;;;;4.80;4.80;;;;;22.61;48.61;100897.13;2000898;29;47821;-57
2022/09/04 03:12:02;;;;;;;;;5.40;5.40;;;;;22.61;48.48;100894.44;2044168;28;47118;-57
2022/09/04 03:13:13;;;;;;;;;7.00;7.00;;;;;22.63;48.67;100899.75;2056694;28;47098;-58
2022/09/04 03:14:33;;;;;;;;;7.00;7.00;;;;;22.65;48.51;100901.38;2060328;28;49838;-57
2022/09/04 03:15:37;;;;;;;;;6.00;6.00;;;;;22.65;48.21;100903.22;2054893;28;47451;-57
2022/09/04 03:16:54;;;;;;;;;7.00;7.00;;;;;22.65;48.88;100904.09;2054907;28;47167;-57
2022/09/04 03:18:00;;;;;;;;;7.00;7.00;;;;;22.63;48.26;100895.22;2054946;28;47572;-57
2022/09/04 03:19:12;;;;;;;;;6.20;6.20;;;;;22.64;48.54;100891.53;2055391;28;47899;-57
2022/09/04 03:20:16;;;;;;;;;6.40;6.40;;;;;22.64;48.42;100896.94;2054941;28;47711;-57
2022/09/04 03:21:26;;;;;;;;;8.00;8.00;;;;;22.65;48.78;100893.28;2053905;28;47911;-55
2022/09/04 03:22:38;;;;;;;;;6.00;6.00;;;;;22.65;48.78;100901.38;2054872;28;47608;-56
2022/09/04 03:23:54;;;;;;;;;6.00;6.00;;;;;22.66;48.63;100897.72;2063040;28;47133;-57
2022/09/04 03:25:27;;;;;;;;;7.80;7.60;;;;;22.67;48.88;100906.69;2069128;28;47329;-56
2022/09/04 03:26:36;;;;;;;;;6.60;6.00;;;;;22.67;48.27;100904.84;2071422;28;48093;-56
2022/09/04 03:27:36;;;;;;;;;5.60;5.20;;;;;22.67;48.52;100901.28;2086043;28;47159;-57
2022/09/04 03:28:50;;;;;;;;;8.25;8.25;;;;;22.64;48.44;100902.38;2105005;28;47384;-56
2022/09/04 03:30:02;;;;;;;;;6.80;6.80;;;;;22.60;48.40;100904.38;2103488;28;47383;-58
2022/09/04 03:31:22;;;;;;;;;5.80;5.00;;;;;22.59;48.70;100904.50;2104233;28;45822;-57
2022/09/04 03:32:28;;;;;;;;;6.60;6.60;;;;;22.59;48.17;100912.59;2103994;28;47611;-56
2022/09/04 03:33:41;;;;;;;;;9.40;8.40;;;;;22.58;48.10;100913.59;2104562;28;47763;-57
2022/09/04 03:34:52;;;;;;;;;8.20;7.00;;;;;22.55;48.49;100900.28;2096407;28;47617;-56
2022/09/04 03:36:05;;;;;;;;;7.00;7.00;;;;;22.53;48.47;100903.09;2097082;28;47713;-57
2022/09/04 03:37:24;;;;;;;;;6.40;6.40;;;;;22.55;48.48;100914.66;2096654;28;47512;-58
2022/09/04 03:38:28;;;;;;;;;6.20;6.20;;;;;22.55;48.78;100911.09;2082359;28;46047;-57
2022/09/04 03:39:43;;;;;;;;;8.00;6.80;;;;;22.57;48.36;100917.25;2094355;28;47065;-58
2022/09/04 03:40:49;;;;;;;;;7.00;6.00;;;;;22.57;48.04;100914.56;2099395;28;47356;-58
2022/09/04 03:42:08;;;;;;;;;7.80;7.80;;;;;22.60;48.53;100919.75;2104371;28;47713;-57
2022/09/04 03:43:33;;;;;;;;;6.00;6.00;;;;;22.61;48.53;100916.06;2095975;28;47394;-56
2022/09/04 03:44:57;;;;;;;;;6.20;6.20;;;;;22.63;48.12;100918.69;2095392;28;47564;-57
2022/09/04 03:46:38;;;;;;;;;7.60;6.80;;;;;22.60;48.23;100917.91;2098185;28;47848;-57
2022/09/04 03:47:51;;;;;;;;;5.00;5.00;;;;;22.59;48.32;100918.03;2087086;28;47515;-56
2022/09/04 03:49:09;;;;;;;;;5.80;5.40;;;;;22.58;48.19;100911.75;2065895;28;48147;-56
2022/09/04 03:50:38;;;;;;;;;7.80;6.00;;;;;22.59;48.03;100910.78;2072152;28;46593;-56
2022/09/04 03:51:52;;;;;;;;;6.00;6.00;;;;;22.60;48.39;100915.22;2079367;28;46624;-56
2022/09/04 03:53:12;;;;;;;;;5.40;5.40;;;;;22.63;48.59;100916.84;2087532;28;47935;-58
2022/09/04 03:54:49;;;;;;;;;5.00;5.00;;;;;22.66;48.51;100913.06;2087624;28;47381;-56
2022/09/04 03:56:20;;;;;;;;;6.40;6.00;;;;;22.68;48.32;100908.41;2087716;28;47569;-56
2022/09/04 03:57:42;;;;;;;;;7.60;6.80;;;;;22.70;47.91;100906.47;2079280;28;47040;-57
2022/09/04 03:59:09;;;;;;;;;6.60;6.60;;;;;22.70;48.35;100912.75;2077488;28;47553;-58
2022/09/04 04:00:17;;;;;;;;;6.40;5.80;;;;;22.71;47.96;100916.31;2073316;28;47461;-58
2022/09/04 04:01:26;;;;;;;;;8.00;8.00;;;;;22.71;47.74;100919.03;2079135;28;47342;-57
2022/09/04 04:02:46;;;;;;;;;6.00;6.00;;;;;22.73;47.73;100917.06;2078959;28;47801;-58
2022/09/04 04:04:09;;;;;;;;;10.20;8.60;;;;;22.74;48.02;100921.50;2068686;28;47401;-57
2022/09/04 04:05:41;;;;;;;;;4.60;4.60;;;;;22.75;47.94;100917.84;2075455;28;47882;-59
2022/09/04 04:07:08;;;;;;;;;5.80;5.80;;;;;22.75;47.53;100917.84;2071346;28;47363;-57
2022/09/04 04:08:26;;;;;;;;;5.20;5.20;;;;;22.75;48.00;100918.72;2074342;28;47589;-58
2022/09/04 04:10:12;;;;;;;;;4.00;4.00;;;;;22.77;47.96;100921.31;2079205;28;47942;-58
2022/09/04 04:11:35;;;;;;;;;5.20;5.20;;;;;22.75;47.63;100921.44;2046672;28;47548;-57
2022/09/04 04:13:09;;;;;;;;;5.00;5.00;;;;;22.75;47.94;100923.28;2046517;28;47379;-57
2022/09/04 04:14:36;;;;;;;;;7.25;6.00;;;;;22.75;48.07;100920.56;2022691;29;48149;-57
2022/09/04 04:16:10;;;;;;;;;6.40;5.60;;;;;22.75;47.64;100928.69;2022919;29;47767;-56
2022/09/04 04:17:31;;;;;;;;;6.00;5.60;;;;;22.74;47.76;100922.41;2022946;29;47995;-58
2022/09/04 04:19:02;;;;;;;;;8.75;7.00;;;;;22.74;47.58;100925.09;2030245;28;47586;-56
2022/09/04 04:20:20;;;;;;;;;8.75;7.25;;;;;22.74;47.28;100925.09;2038262;28;47582;-57
2022/09/04 04:21:30;;;;;;;;;7.50;7.00;;;;;22.72;47.77;100932.44;2034351;28;47658;-57
2022/09/04 04:22:54;;;;;;;;;10.00;7.25;;;;;22.72;47.67;100934.28;2038713;28;47941;-57
2022/09/04 04:24:28;;;;;;;;;6.60;5.60;;;;;22.67;47.64;100926.50;2038520;28;47497;-58
2022/09/04 04:26:06;;;;;;;;;8.00;7.40;;;;;22.66;47.80;100929.31;2038818;28;47390;-57
2022/09/04 04:27:40;;;;;;;;;6.25;6.25;;;;;22.64;47.45;100926.72;2030953;29;48032;-56
2022/09/04 04:29:01;;;;;;;;;6.00;6.00;;;;;22.64;47.96;100932.13;2030457;29;47603;-57
2022/09/04 04:30:12;;;;;;;;;6.75;6.75;;;;;22.64;48.13;100928.53;2030946;29;47777;-58
2022/09/04 04:31:33;;;;;;;;;5.25;5.25;;;;;22.66;48.17;100929.31;2036511;28;47975;-55
2022/09/04 04:32:46;;;;;;;;;6.00;6.00;;;;;22.66;47.73;100927.47;2054459;28;47690;-58
2022/09/04 04:34:25;;;;;;;;;3.75;3.75;;;;;22.67;47.77;100931.91;2054692;28;47563;-57
2022/09/04 04:35:47;;;;;;;;;8.60;7.00;;;;;22.68;47.74;100935.47;2054641;28;48134;-57
2022/09/04 04:37:02;;;;;;;;;6.80;6.40;;;;;22.68;47.61;100930.94;2054853;28;47381;-56
2022/09/04 04:38:20;;;;;;;;;6.80;6.20;;;;;22.69;47.72;100938.06;2046741;28;47944;-56
2022/09/04 04:40:06;;;;;;;;;6.20;5.80;;;;;22.71;47.73;100941.53;2052276;28;47582;-57
2022/09/04 04:41:20;;;;;;;;;6.60;6.60;;;;;22.69;47.62;100935.34;2038356;28;47407;-58
2022/09/04 04:42:41;;;;;;;;;6.60;6.40;;;;;22.71;47.29;100937.97;2038124;28;47876;-57
2022/09/04 04:43:57;;;;;;;;;4.00;4.00;;;;;22.70;47.43;100944.34;2038439;28;48571;-56
2022/09/04 04:46:57;;;;;;;;;6.80;6.80;;;;;22.67;47.20;100939.16;2030646;29;48282;-56
2022/09/04 04:48:19;;;;;;;;;6.00;6.00;;;;;22.67;47.58;100940.00;2030594;29;48170;-57
2022/09/04 04:49:56;;;;;;;;;6.80;6.80;;;;;22.67;47.61;100941.84;2054128;28;47551;-58
2022/09/04 04:51:04;;;;;;;;;5.00;5.00;;;;;22.65;47.35;100938.38;2054578;28;47693;-57
2022/09/04 04:52:45;;;;;;;;;7.00;7.00;;;;;22.63;47.94;100943.91;2062436;28;48059;-56
2022/09/04 04:54:01;;;;;;;;;7.80;7.80;;;;;22.60;47.66;100946.81;2068839;28;47402;-56
2022/09/04 04:55:44;;;;;;;;;8.40;7.20;;;;;22.60;47.74;100946.81;2056404;28;47536;-56
2022/09/04 04:57:29;;;;;;;;;6.20;6.00;;;;;22.60;47.68;100949.50;2070808;28;47281;-56
2022/09/04 04:58:49;;;;;;;;;7.00;7.00;;;;;22.60;47.59;100953.06;2074961;28;47596;-57
2022/09/04 05:00:05;;;;;;;;;7.00;7.00;;;;;22.59;47.29;100956.75;2070669;28;47624;-58
2022/09/04 05:01:31;;;;;;;;;6.20;6.20;;;;;22.59;47.30;100956.75;2065142;28;47885;-56
2022/09/04 05:03:02;;;;;;;;;5.40;5.20;;;;;22.59;47.81;100959.47;2067498;28;47593;-57
2022/09/04 05:04:46;;;;;;;;;6.20;6.20;;;;;22.61;47.28;100960.25;2070449;28;47763;-58
2022/09/04 05:06:24;;;;;;;;;6.00;6.00;;;;;22.62;47.44;100961.13;2067654;28;46748;-57
2022/09/04 05:07:47;;;;;;;;;5.00;5.00;;;;;22.61;47.33;100960.25;2052518;28;47609;-57
2022/09/04 05:09:26;;;;;;;;;6.80;6.00;;;;;22.60;47.63;100958.50;2054717;28;48031;-55
2022/09/04 05:10:51;;;;;;;;;5.00;5.00;;;;;22.59;47.63;100964.00;2042111;28;47804;-53
2022/09/04 05:11:58;;;;;;;;;7.20;6.00;;;;;22.60;47.25;100957.63;2040392;28;47316;-56
2022/09/04 05:13:21;;;;;;;;;5.00;5.00;;;;;22.58;47.35;100965.84;2046074;28;48073;-58
2022/09/04 05:14:42;;;;;;;;;4.20;4.20;;;;;22.58;47.47;100960.44;2046504;28;47772;-55
2022/09/04 05:16:17;;;;;;;;;5.00;5.00;;;;;22.58;46.98;100964.97;2046718;28;47214;-56
2022/09/04 05:17:43;;;;;;;;;6.00;5.60;;;;;22.56;47.49;100970.50;2046280;28;48109;-56
2022/09/04 05:19:05;;;;;;;;;5.00;5.00;;;;;22.57;47.22;100971.38;2057947;28;47577;-57
2022/09/04 05:20:15;;;;;;;;;7.00;5.80;;;;;22.56;47.12;100975.91;2062455;28;47470;-57
2022/09/04 05:21:46;;;;;;;;;5.00;5.00;;;;;22.55;47.07;100976.00;2062698;28;47596;-56
2022/09/04 05:23:11;;;;;;;;;4.80;4.80;;;;;22.50;47.25;100970.94;2054426;28;48316;-59
2022/09/04 05:24:42;;;;;;;;;9.00;8.00;;;;;22.46;47.31;100982.91;2054129;28;47560;-57
2022/09/04 05:26:09;;;;;;;;;5.80;5.80;;;;;22.41;47.02;100979.66;2054731;28;45711;-57
2022/09/04 05:27:16;;;;;;;;;4.00;4.00;;;;;22.38;47.13;100992.50;2061669;28;47619;-57
2022/09/04 05:28:27;;;;;;;;;5.20;5.00;;;;;22.36;46.63;100987.22;2062471;28;47694;-59
2022/09/04 05:29:55;;;;;;;;;4.00;4.00;;;;;22.35;46.42;100985.44;2062541;28;47692;-58
2022/09/04 05:31:15;;;;;;;;;5.00;5.00;;;;;22.35;46.92;100987.28;2062640;28;47742;-57
2022/09/04 05:32:31;;;;;;;;;4.80;4.80;;;;;22.33;46.56;100996.38;2062328;28;48005;-57
2022/09/04 05:33:49;;;;;;;;;5.25;5.00;;;;;22.31;46.84;100994.75;2062358;28;47485;-56
2022/09/04 05:34:50;;;;;;;;;4.75;4.25;;;;;22.29;47.00;100996.69;2061987;28;47696;-58
2022/09/04 05:35:57;;;;;;;;;5.00;5.00;;;;;22.30;47.24;100996.59;2062400;28;46940;-59
2022/09/04 05:37:15;;;;;;;;;5.80;5.20;;;;;22.31;46.97;100992.91;2062170;28;47502;-59
2022/09/04 05:38:31;;;;;;;;;7.00;6.00;;;;;22.33;47.54;100993.66;2062484;28;47299;-58
2022/09/04 05:39:44;;;;;;;;;4.25;4.25;;;;;22.37;47.00;101001.59;2088182;28;47325;-58
2022/09/04 05:41:04;;;;;;;;;4.00;4.00;;;;;22.40;46.87;101002.25;2098830;28;47881;-59
2022/09/04 05:42:20;;;;;;;;;3.75;3.75;;;;;22.43;47.41;101003.88;2088360;28;48044;-58
2022/09/04 05:43:37;;;;;;;;;6.00;5.20;;;;;22.45;46.71;101010.91;2086667;28;47581;-56
2022/09/04 05:44:47;;;;;;;;;3.75;3.75;;;;;22.45;46.57;101007.34;2089079;28;47546;-57
2022/09/04 05:45:57;;;;;;;;;5.40;5.40;;;;;22.47;47.17;101002.69;2091887;28;47888;-56
2022/09/04 05:47:19;;;;;;;;;7.60;7.60;;;;;22.49;47.29;101004.34;2095182;28;47792;-57
2022/09/04 05:48:28;;;;;;;;;3.75;3.75;;;;;22.49;46.97;101008.91;2099978;28;47516;-57
2022/09/04 05:49:32;;;;;;;;;5.00;4.00;;;;;22.52;47.13;101016.81;2096443;28;47503;-56
2022/09/04 05:50:41;;;;;;;;;6.60;6.60;;;;;22.53;46.77;101011.28;2100538;28;46326;-57
2022/09/04 05:52:00;;;;;;;;;5.75;5.50;;;;;22.55;46.70;101016.59;2103996;28;47424;-57
2022/09/04 05:53:09;;;;;;;;;7.20;7.20;;;;;22.56;47.25;101013.78;2104638;28;47619;-57
2022/09/04 05:54:34;;;;;;;;;6.20;6.20;;;;;22.57;46.91;101012.81;2104331;28;47976;-56
2022/09/04 05:55:56;;;;;;;;;6.40;6.00;;;;;22.61;46.82;101010.75;2101793;28;47607;-57
2022/09/04 05:57:08;;;;;;;;;5.20;5.20;;;;;22.64;47.53;101012.41;2100370;28;48040;-57
2022/09/04 05:58:27;;;;;;;;;6.20;5.40;;;;;22.66;47.18;101018.56;2102113;28;47538;-57
2022/09/04 05:59:44;;;;;;;;;7.20;7.20;;;;;22.67;47.17;101023.00;2092006;28;47420;-56
2022/09/04 06:00:59;;;;;;;;;9.00;9.00;;;;;22.67;47.07;101020.31;2091185;28;47669;-54
2022/09/04 06:02:42;;;;;;;;;7.40;7.40;;;;;22.67;47.62;101021.19;2098324;28;47853;-57
2022/09/04 06:04:08;;;;;;;;;7.80;7.00;;;;;22.72;47.87;101018.16;2063550;28;47865;-57
2022/09/04 06:05:18;;;;;;;;;7.00;7.00;;;;;22.74;47.85;101022.50;2063279;28;48880;-57
2022/09/04 06:06:27;;;;;;;;;8.60;6.60;;;;;22.76;47.66;101020.56;2063386;28;47910;-58
2022/09/04 06:07:37;;;;;;;;;8.60;8.60;;;;;22.75;47.85;101017.97;2063408;28;47257;-58